sensor_id;sensor_type;location;lat;lon;timestamp;P1;durP1;ratioP1;P2;durP2;ratioP2
39324;SDS011;25037;49.488;9.900;2024-03-02T00:00:30;17.02;;;7.72;;
39324;SDS011;25037;49.488;9.900;2024-03-02T00:02:58;16.70;;;9.10;;
39324;SDS011;25037;49.488;9.900;2024-03-02T00:05:24;18.52;;;8.82;;
39324;SDS011;25037;49.488;9.900;2024-03-02T00:07:55;21.10;;;9.82;;
39324;SDS011;25037;49.488;9.900;2024-03-02T00:10:26;18.85;;;8.63;;
39324;SDS011;25037;49.488;9.900;2024-03-02T00:12:58;20.77;;;8.57;;
39324;SDS011;25037;49.488;9.900;2024-03-02T00:15:40;18.00;;;7.88;;
39324;SDS011;25037;49.488;9.900;2024-03-02T00:18:11;17.00;;;7.47;;
39324;SDS011;25037;49.488;9.900;2024-03-02T00:20:54;14.95;;;7.85;;
39324;SDS011;25037;49.488;9.900;2024-03-02T00:25:56;16.75;;;6.90;;
39324;SDS011;25037;49.488;9.900;2024-03-02T00:33:45;18.17;;;7.75;;
39324;SDS011;25037;49.488;9.900;2024-03-02T00:36:14;20.10;;;9.27;;
39324;SDS011;25037;49.488;9.900;2024-03-02T00:38:51;19.30;;;8.60;;
39324;SDS011;25037;49.488;9.900;2024-03-02T00:41:29;17.58;;;8.20;;
39324;SDS011;25037;49.488;9.900;2024-03-02T00:44:01;19.52;;;8.68;;
39324;SDS011;25037;49.488;9.900;2024-03-02T00:46:41;16.25;;;7.18;;
39324;SDS011;25037;49.488;9.900;2024-03-02T00:49:22;21.10;;;8.98;;
39324;SDS011;25037;49.488;9.900;2024-03-02T00:51:51;18.65;;;8.82;;
39324;SDS011;25037;49.488;9.900;2024-03-02T00:54:20;17.42;;;8.15;;
39324;SDS011;25037;49.488;9.900;2024-03-02T00:56:48;18.38;;;7.18;;
39324;SDS011;25037;49.488;9.900;2024-03-02T00:59:15;19.73;;;8.95;;
39324;SDS011;25037;49.488;9.900;2024-03-02T01:01:41;20.65;;;8.10;;
39324;SDS011;25037;49.488;9.900;2024-03-02T01:04:09;15.60;;;7.97;;
39324;SDS011;25037;49.488;9.900;2024-03-02T01:06:35;16.67;;;8.55;;
39324;SDS011;25037;49.488;9.900;2024-03-02T01:09:02;20.83;;;8.77;;
39324;SDS011;25037;49.488;9.900;2024-03-02T01:11:29;18.15;;;8.55;;
39324;SDS011;25037;49.488;9.900;2024-03-02T01:13:56;18.33;;;8.43;;
39324;SDS011;25037;49.488;9.900;2024-03-02T01:16:22;18.13;;;8.43;;
39324;SDS011;25037;49.488;9.900;2024-03-02T01:18:49;19.20;;;8.38;;
39324;SDS011;25037;49.488;9.900;2024-03-02T01:21:16;18.42;;;8.70;;
39324;SDS011;25037;49.488;9.900;2024-03-02T01:23:43;13.52;;;6.95;;
39324;SDS011;25037;49.488;9.900;2024-03-02T01:26:10;18.30;;;8.40;;
39324;SDS011;25037;49.488;9.900;2024-03-02T01:28:36;19.55;;;8.35;;
39324;SDS011;25037;49.488;9.900;2024-03-02T01:31:03;20.48;;;8.45;;
39324;SDS011;25037;49.488;9.900;2024-03-02T01:33:30;18.40;;;9.13;;
39324;SDS011;25037;49.488;9.900;2024-03-02T01:35:57;17.27;;;8.35;;
39324;SDS011;25037;49.488;9.900;2024-03-02T01:38:24;21.98;;;9.82;;
39324;SDS011;25037;49.488;9.900;2024-03-02T01:40:50;18.92;;;9.48;;
39324;SDS011;25037;49.488;9.900;2024-03-02T01:43:18;17.17;;;8.00;;
39324;SDS011;25037;49.488;9.900;2024-03-02T01:45:44;18.08;;;9.23;;
39324;SDS011;25037;49.488;9.900;2024-03-02T01:48:11;21.45;;;9.55;;
39324;SDS011;25037;49.488;9.900;2024-03-02T01:50:38;19.33;;;9.23;;
39324;SDS011;25037;49.488;9.900;2024-03-02T01:53:05;17.00;;;8.35;;
39324;SDS011;25037;49.488;9.900;2024-03-02T01:55:32;18.45;;;8.27;;
39324;SDS011;25037;49.488;9.900;2024-03-02T01:58:00;19.00;;;9.50;;
39324;SDS011;25037;49.488;9.900;2024-03-02T02:02:54;22.75;;;9.75;;
39324;SDS011;25037;49.488;9.900;2024-03-02T02:05:21;18.73;;;8.18;;
39324;SDS011;25037;49.488;9.900;2024-03-02T02:07:48;20.63;;;9.13;;
39324;SDS011;25037;49.488;9.900;2024-03-02T02:10:15;19.63;;;8.88;;
39324;SDS011;25037;49.488;9.900;2024-03-02T02:12:42;18.17;;;8.48;;
39324;SDS011;25037;49.488;9.900;2024-03-02T02:15:24;20.30;;;8.88;;
39324;SDS011;25037;49.488;9.900;2024-03-02T02:17:52;15.23;;;7.10;;
39324;SDS011;25037;49.488;9.900;2024-03-02T02:20:19;18.13;;;8.52;;
39324;SDS011;25037;49.488;9.900;2024-03-02T02:22:59;17.40;;;7.35;;
39324;SDS011;25037;49.488;9.900;2024-03-02T02:25:26;18.88;;;7.70;;
39324;SDS011;25037;49.488;9.900;2024-03-02T02:27:54;19.73;;;7.82;;
39324;SDS011;25037;49.488;9.900;2024-03-02T02:30:23;23.30;;;9.38;;
39324;SDS011;25037;49.488;9.900;2024-03-02T02:32:51;18.02;;;8.95;;
39324;SDS011;25037;49.488;9.900;2024-03-02T02:35:19;21.05;;;9.82;;
39324;SDS011;25037;49.488;9.900;2024-03-02T02:37:46;19.88;;;8.98;;
39324;SDS011;25037;49.488;9.900;2024-03-02T02:40:14;22.83;;;9.52;;
39324;SDS011;25037;49.488;9.900;2024-03-02T02:42:41;20.67;;;9.48;;
39324;SDS011;25037;49.488;9.900;2024-03-02T02:45:08;18.65;;;8.50;;
39324;SDS011;25037;49.488;9.900;2024-03-02T02:47:35;19.15;;;9.05;;
39324;SDS011;25037;49.488;9.900;2024-03-02T02:50:02;18.48;;;8.93;;
39324;SDS011;25037;49.488;9.900;2024-03-02T02:52:33;15.88;;;7.47;;
39324;SDS011;25037;49.488;9.900;2024-03-02T02:55:06;19.73;;;8.13;;
39324;SDS011;25037;49.488;9.900;2024-03-02T02:57:34;17.52;;;8.65;;
39324;SDS011;25037;49.488;9.900;2024-03-02T03:00:04;16.98;;;8.10;;
39324;SDS011;25037;49.488;9.900;2024-03-02T03:02:36;19.60;;;7.75;;
39324;SDS011;25037;49.488;9.900;2024-03-02T03:05:11;18.02;;;7.97;;
39324;SDS011;25037;49.488;9.900;2024-03-02T03:07:39;17.08;;;8.45;;
39324;SDS011;25037;49.488;9.900;2024-03-02T03:10:07;19.98;;;7.55;;
39324;SDS011;25037;49.488;9.900;2024-03-02T03:12:34;18.17;;;7.60;;
39324;SDS011;25037;49.488;9.900;2024-03-02T03:15:02;15.70;;;6.65;;
39324;SDS011;25037;49.488;9.900;2024-03-02T03:17:30;17.17;;;7.68;;
39324;SDS011;25037;49.488;9.900;2024-03-02T03:19:57;16.05;;;7.43;;
39324;SDS011;25037;49.488;9.900;2024-03-02T03:22:24;16.10;;;7.20;;
39324;SDS011;25037;49.488;9.900;2024-03-02T03:24:51;16.20;;;7.60;;
39324;SDS011;25037;49.488;9.900;2024-03-02T03:27:18;18.35;;;7.90;;
39324;SDS011;25037;49.488;9.900;2024-03-02T03:29:46;14.93;;;6.75;;
39324;SDS011;25037;49.488;9.900;2024-03-02T03:32:13;18.33;;;8.50;;
39324;SDS011;25037;49.488;9.900;2024-03-02T03:34:40;15.85;;;7.03;;
39324;SDS011;25037;49.488;9.900;2024-03-02T03:37:07;17.60;;;7.38;;
39324;SDS011;25037;49.488;9.900;2024-03-02T03:39:34;15.95;;;7.82;;
39324;SDS011;25037;49.488;9.900;2024-03-02T03:42:02;20.95;;;9.00;;
39324;SDS011;25037;49.488;9.900;2024-03-02T03:44:29;18.80;;;7.72;;
39324;SDS011;25037;49.488;9.900;2024-03-02T03:46:55;18.10;;;8.57;;
39324;SDS011;25037;49.488;9.900;2024-03-02T03:49:22;19.52;;;7.72;;
39324;SDS011;25037;49.488;9.900;2024-03-02T03:51:49;19.27;;;8.60;;
39324;SDS011;25037;49.488;9.900;2024-03-02T03:54:16;16.80;;;8.18;;
39324;SDS011;25037;49.488;9.900;2024-03-02T03:56:42;16.00;;;7.78;;
39324;SDS011;25037;49.488;9.900;2024-03-02T03:59:09;16.58;;;7.05;;
39324;SDS011;25037;49.488;9.900;2024-03-02T04:01:36;18.17;;;7.88;;
39324;SDS011;25037;49.488;9.900;2024-03-02T04:04:03;16.08;;;7.18;;
39324;SDS011;25037;49.488;9.900;2024-03-02T04:06:30;17.00;;;6.85;;
39324;SDS011;25037;49.488;9.900;2024-03-02T04:11:24;13.98;;;7.10;;
39324;SDS011;25037;49.488;9.900;2024-03-02T04:13:50;19.05;;;7.43;;
39324;SDS011;25037;49.488;9.900;2024-03-02T04:16:18;14.13;;;6.15;;
39324;SDS011;25037;49.488;9.900;2024-03-02T04:18:45;15.38;;;7.18;;
39324;SDS011;25037;49.488;9.900;2024-03-02T04:21:11;15.60;;;7.47;;
39324;SDS011;25037;49.488;9.900;2024-03-02T04:23:38;16.95;;;7.95;;
39324;SDS011;25037;49.488;9.900;2024-03-02T04:26:05;15.50;;;6.57;;
39324;SDS011;25037;49.488;9.900;2024-03-02T04:28:31;19.35;;;8.73;;
39324;SDS011;25037;49.488;9.900;2024-03-02T04:30:59;16.52;;;7.03;;
39324;SDS011;25037;49.488;9.900;2024-03-02T04:33:25;17.08;;;7.97;;
39324;SDS011;25037;49.488;9.900;2024-03-02T04:35:52;18.45;;;8.70;;
39324;SDS011;25037;49.488;9.900;2024-03-02T04:38:19;20.02;;;8.25;;
39324;SDS011;25037;49.488;9.900;2024-03-02T04:40:45;19.30;;;8.25;;
39324;SDS011;25037;49.488;9.900;2024-03-02T04:43:12;15.82;;;7.15;;
39324;SDS011;25037;49.488;9.900;2024-03-02T04:45:42;15.52;;;7.25;;
39324;SDS011;25037;49.488;9.900;2024-03-02T04:48:09;18.73;;;8.23;;
39324;SDS011;25037;49.488;9.900;2024-03-02T04:50:36;19.67;;;8.18;;
39324;SDS011;25037;49.488;9.900;2024-03-02T04:53:02;18.35;;;8.00;;
39324;SDS011;25037;49.488;9.900;2024-03-02T04:55:29;17.73;;;7.05;;
39324;SDS011;25037;49.488;9.900;2024-03-02T04:58:05;19.77;;;8.30;;
39324;SDS011;25037;49.488;9.900;2024-03-02T05:00:33;17.13;;;7.15;;
39324;SDS011;25037;49.488;9.900;2024-03-02T05:03:00;18.05;;;8.18;;
39324;SDS011;25037;49.488;9.900;2024-03-02T05:05:27;19.38;;;8.30;;
39324;SDS011;25037;49.488;9.900;2024-03-02T05:07:54;16.33;;;7.10;;
39324;SDS011;25037;49.488;9.900;2024-03-02T05:10:20;15.77;;;7.22;;
39324;SDS011;25037;49.488;9.900;2024-03-02T05:12:47;16.38;;;7.28;;
39324;SDS011;25037;49.488;9.900;2024-03-02T05:15:23;15.20;;;6.88;;
39324;SDS011;25037;49.488;9.900;2024-03-02T05:20:17;22.63;;;6.75;;
39324;SDS011;25037;49.488;9.900;2024-03-02T05:22:44;19.02;;;8.30;;
39324;SDS011;25037;49.488;9.900;2024-03-02T05:25:11;17.58;;;8.27;;
39324;SDS011;25037;49.488;9.900;2024-03-02T05:27:37;17.15;;;7.47;;
39324;SDS011;25037;49.488;9.900;2024-03-02T05:30:04;15.07;;;6.75;;
39324;SDS011;25037;49.488;9.900;2024-03-02T05:32:33;18.13;;;7.93;;
39324;SDS011;25037;49.488;9.900;2024-03-02T05:35:00;17.30;;;7.57;;
39324;SDS011;25037;49.488;9.900;2024-03-02T05:37:27;18.30;;;7.47;;
39324;SDS011;25037;49.488;9.900;2024-03-02T05:39:54;20.35;;;8.68;;
39324;SDS011;25037;49.488;9.900;2024-03-02T05:42:21;20.13;;;7.97;;
39324;SDS011;25037;49.488;9.900;2024-03-02T05:44:48;16.27;;;7.13;;
39324;SDS011;25037;49.488;9.900;2024-03-02T05:47:14;20.00;;;8.13;;
39324;SDS011;25037;49.488;9.900;2024-03-02T05:49:41;20.48;;;8.95;;
39324;SDS011;25037;49.488;9.900;2024-03-02T05:52:09;18.83;;;7.78;;
39324;SDS011;25037;49.488;9.900;2024-03-02T05:54:36;17.70;;;7.72;;
39324;SDS011;25037;49.488;9.900;2024-03-02T05:57:03;18.13;;;8.13;;
39324;SDS011;25037;49.488;9.900;2024-03-02T05:59:43;19.85;;;7.85;;
39324;SDS011;25037;49.488;9.900;2024-03-02T06:02:10;18.45;;;7.90;;
39324;SDS011;25037;49.488;9.900;2024-03-02T06:04:37;20.48;;;8.27;;
39324;SDS011;25037;49.488;9.900;2024-03-02T06:07:03;20.48;;;8.85;;
39324;SDS011;25037;49.488;9.900;2024-03-02T06:09:30;20.98;;;8.40;;
39324;SDS011;25037;49.488;9.900;2024-03-02T06:11:57;19.73;;;8.75;;
39324;SDS011;25037;49.488;9.900;2024-03-02T06:14:23;20.05;;;8.07;;
39324;SDS011;25037;49.488;9.900;2024-03-02T06:16:50;20.48;;;8.18;;
39324;SDS011;25037;49.488;9.900;2024-03-02T06:19:17;17.52;;;8.30;;
39324;SDS011;25037;49.488;9.900;2024-03-02T06:21:44;32.13;;;8.65;;
39324;SDS011;25037;49.488;9.900;2024-03-02T06:24:10;16.58;;;7.50;;
39324;SDS011;25037;49.488;9.900;2024-03-02T06:26:37;20.33;;;9.18;;
39324;SDS011;25037;49.488;9.900;2024-03-02T06:29:05;17.92;;;8.48;;
39324;SDS011;25037;49.488;9.900;2024-03-02T06:31:32;21.27;;;9.05;;
39324;SDS011;25037;49.488;9.900;2024-03-02T06:33:59;20.58;;;8.40;;
39324;SDS011;25037;49.488;9.900;2024-03-02T06:36:25;21.45;;;9.25;;
39324;SDS011;25037;49.488;9.900;2024-03-02T06:38:52;20.38;;;9.52;;
39324;SDS011;25037;49.488;9.900;2024-03-02T06:41:19;21.13;;;9.50;;
39324;SDS011;25037;49.488;9.900;2024-03-02T06:43:45;21.42;;;8.43;;
39324;SDS011;25037;49.488;9.900;2024-03-02T06:46:12;21.73;;;9.25;;
39324;SDS011;25037;49.488;9.900;2024-03-02T06:48:41;22.50;;;9.43;;
39324;SDS011;25037;49.488;9.900;2024-03-02T06:51:07;19.75;;;8.95;;
39324;SDS011;25037;49.488;9.900;2024-03-02T06:53:34;22.40;;;8.63;;
39324;SDS011;25037;49.488;9.900;2024-03-02T06:56:01;18.70;;;8.77;;
39324;SDS011;25037;49.488;9.900;2024-03-02T06:58:27;20.50;;;8.45;;
39324;SDS011;25037;49.488;9.900;2024-03-02T07:00:54;18.00;;;8.45;;
39324;SDS011;25037;49.488;9.900;2024-03-02T07:03:21;20.55;;;9.10;;
39324;SDS011;25037;49.488;9.900;2024-03-02T07:05:47;21.88;;;9.60;;
39324;SDS011;25037;49.488;9.900;2024-03-02T07:08:14;21.63;;;10.05;;
39324;SDS011;25037;49.488;9.900;2024-03-02T07:10:41;21.13;;;9.65;;
39324;SDS011;25037;49.488;9.900;2024-03-02T07:13:08;20.58;;;10.45;;
39324;SDS011;25037;49.488;9.900;2024-03-02T07:15:34;26.90;;;11.25;;
39324;SDS011;25037;49.488;9.900;2024-03-02T07:18:20;28.05;;;11.82;;
39324;SDS011;25037;49.488;9.900;2024-03-02T07:20:47;25.65;;;11.43;;
39324;SDS011;25037;49.488;9.900;2024-03-02T07:23:15;32.00;;;12.57;;
39324;SDS011;25037;49.488;9.900;2024-03-02T07:25:42;26.73;;;12.07;;
39324;SDS011;25037;49.488;9.900;2024-03-02T07:28:11;24.63;;;11.80;;
39324;SDS011;25037;49.488;9.900;2024-03-02T07:30:38;25.33;;;11.85;;
39324;SDS011;25037;49.488;9.900;2024-03-02T07:33:06;28.40;;;10.63;;
39324;SDS011;25037;49.488;9.900;2024-03-02T07:35:32;25.70;;;10.85;;
39324;SDS011;25037;49.488;9.900;2024-03-02T07:37:59;24.00;;;10.80;;
39324;SDS011;25037;49.488;9.900;2024-03-02T07:40:26;27.05;;;11.65;;
39324;SDS011;25037;49.488;9.900;2024-03-02T07:42:53;20.95;;;10.20;;
39324;SDS011;25037;49.488;9.900;2024-03-02T07:45:19;20.35;;;9.43;;
39324;SDS011;25037;49.488;9.900;2024-03-02T07:47:46;20.17;;;9.15;;
39324;SDS011;25037;49.488;9.900;2024-03-02T07:50:13;21.00;;;8.55;;
39324;SDS011;25037;49.488;9.900;2024-03-02T07:52:40;19.00;;;8.75;;
39324;SDS011;25037;49.488;9.900;2024-03-02T07:55:06;18.98;;;9.52;;
39324;SDS011;25037;49.488;9.900;2024-03-02T07:57:33;19.35;;;9.38;;
39324;SDS011;25037;49.488;9.900;2024-03-02T08:02:27;20.73;;;9.85;;
39324;SDS011;25037;49.488;9.900;2024-03-02T08:04:53;20.80;;;10.05;;
39324;SDS011;25037;49.488;9.900;2024-03-02T08:07:20;20.42;;;9.48;;
39324;SDS011;25037;49.488;9.900;2024-03-02T08:09:47;19.08;;;8.93;;
39324;SDS011;25037;49.488;9.900;2024-03-02T08:12:13;21.55;;;9.98;;
39324;SDS011;25037;49.488;9.900;2024-03-02T08:14:40;20.00;;;9.63;;
39324;SDS011;25037;49.488;9.900;2024-03-02T08:17:07;20.67;;;9.85;;
39324;SDS011;25037;49.488;9.900;2024-03-02T08:19:36;21.27;;;10.38;;
39324;SDS011;25037;49.488;9.900;2024-03-02T08:22:03;20.00;;;10.07;;
39324;SDS011;25037;49.488;9.900;2024-03-02T08:24:30;20.42;;;9.48;;
39324;SDS011;25037;49.488;9.900;2024-03-02T08:26:58;19.90;;;9.45;;
39324;SDS011;25037;49.488;9.900;2024-03-02T08:29:25;20.90;;;9.77;;
39324;SDS011;25037;49.488;9.900;2024-03-02T08:31:52;22.95;;;9.40;;
39324;SDS011;25037;49.488;9.900;2024-03-02T08:34:20;18.42;;;9.20;;
39324;SDS011;25037;49.488;9.900;2024-03-02T08:39:13;16.05;;;7.82;;
39324;SDS011;25037;49.488;9.900;2024-03-02T08:41:42;18.00;;;8.25;;
39324;SDS011;25037;49.488;9.900;2024-03-02T08:44:10;18.55;;;8.60;;
39324;SDS011;25037;49.488;9.900;2024-03-02T08:46:38;19.52;;;9.27;;
39324;SDS011;25037;49.488;9.900;2024-03-02T08:49:06;20.15;;;8.82;;
39324;SDS011;25037;49.488;9.900;2024-03-02T08:51:33;16.55;;;8.38;;
39324;SDS011;25037;49.488;9.900;2024-03-02T08:54:00;17.23;;;8.55;;
39324;SDS011;25037;49.488;9.900;2024-03-02T08:56:26;15.68;;;8.55;;
39324;SDS011;25037;49.488;9.900;2024-03-02T08:58:53;14.48;;;6.82;;
39324;SDS011;25037;49.488;9.900;2024-03-02T09:01:20;14.77;;;7.03;;
39324;SDS011;25037;49.488;9.900;2024-03-02T09:06:15;14.13;;;7.43;;
39324;SDS011;25037;49.488;9.900;2024-03-02T09:08:46;14.20;;;7.10;;
39324;SDS011;25037;49.488;9.900;2024-03-02T09:11:14;13.20;;;6.50;;
39324;SDS011;25037;49.488;9.900;2024-03-02T09:13:40;13.10;;;6.88;;
39324;SDS011;25037;49.488;9.900;2024-03-02T09:16:08;13.80;;;6.22;;
39324;SDS011;25037;49.488;9.900;2024-03-02T09:18:37;13.20;;;6.75;;
39324;SDS011;25037;49.488;9.900;2024-03-02T09:21:04;14.73;;;7.13;;
39324;SDS011;25037;49.488;9.900;2024-03-02T09:23:31;12.23;;;6.88;;
39324;SDS011;25037;49.488;9.900;2024-03-02T09:28:24;11.00;;;5.65;;
39324;SDS011;25037;49.488;9.900;2024-03-02T09:30:51;12.57;;;6.80;;
39324;SDS011;25037;49.488;9.900;2024-03-02T09:33:18;12.80;;;6.07;;
39324;SDS011;25037;49.488;9.900;2024-03-02T09:35:45;11.60;;;6.13;;
39324;SDS011;25037;49.488;9.900;2024-03-02T09:38:11;12.90;;;6.60;;
39324;SDS011;25037;49.488;9.900;2024-03-02T09:40:38;11.45;;;6.30;;
39324;SDS011;25037;49.488;9.900;2024-03-02T09:43:05;11.32;;;5.68;;
39324;SDS011;25037;49.488;9.900;2024-03-02T09:45:32;10.75;;;5.50;;
39324;SDS011;25037;49.488;9.900;2024-03-02T09:47:59;10.57;;;5.28;;
39324;SDS011;25037;49.488;9.900;2024-03-02T09:52:53;10.77;;;4.85;;
39324;SDS011;25037;49.488;9.900;2024-03-02T09:55:20;15.52;;;6.88;;
39324;SDS011;25037;49.488;9.900;2024-03-02T10:00:15;9.02;;;4.90;;
39324;SDS011;25037;49.488;9.900;2024-03-02T10:02:42;9.38;;;4.90;;
39324;SDS011;25037;49.488;9.900;2024-03-02T10:05:09;9.05;;;4.82;;
39324;SDS011;25037;49.488;9.900;2024-03-02T10:07:36;8.52;;;4.68;;
39324;SDS011;25037;49.488;9.900;2024-03-02T10:10:15;9.50;;;5.00;;
39324;SDS011;25037;49.488;9.900;2024-03-02T10:12:42;8.85;;;4.90;;
39324;SDS011;25037;49.488;9.900;2024-03-02T10:17:36;8.63;;;4.20;;
39324;SDS011;25037;49.488;9.900;2024-03-02T10:20:20;8.95;;;4.57;;
39324;SDS011;25037;49.488;9.900;2024-03-02T10:23:09;8.45;;;4.47;;
39324;SDS011;25037;49.488;9.900;2024-03-02T10:25:40;8.27;;;4.30;;
39324;SDS011;25037;49.488;9.900;2024-03-02T10:28:20;12.13;;;4.38;;
39324;SDS011;25037;49.488;9.900;2024-03-02T10:33:14;9.48;;;4.45;;
39324;SDS011;25037;49.488;9.900;2024-03-02T10:35:41;9.10;;;4.47;;
39324;SDS011;25037;49.488;9.900;2024-03-02T10:38:10;6.85;;;3.65;;
39324;SDS011;25037;49.488;9.900;2024-03-02T10:40:37;8.10;;;4.38;;
39324;SDS011;25037;49.488;9.900;2024-03-02T10:43:04;8.52;;;4.68;;
39324;SDS011;25037;49.488;9.900;2024-03-02T10:45:32;6.88;;;4.00;;
39324;SDS011;25037;49.488;9.900;2024-03-02T10:47:59;8.38;;;3.97;;
39324;SDS011;25037;49.488;9.900;2024-03-02T10:50:28;8.43;;;4.00;;
39324;SDS011;25037;49.488;9.900;2024-03-02T10:52:56;9.15;;;4.40;;
39324;SDS011;25037;49.488;9.900;2024-03-02T10:55:23;11.35;;;4.07;;
39324;SDS011;25037;49.488;9.900;2024-03-02T10:57:51;9.20;;;3.92;;
39324;SDS011;25037;49.488;9.900;2024-03-02T11:00:20;6.75;;;3.97;;
39324;SDS011;25037;49.488;9.900;2024-03-02T11:02:56;7.95;;;3.85;;
39324;SDS011;25037;49.488;9.900;2024-03-02T11:05:29;9.25;;;3.25;;
39324;SDS011;25037;49.488;9.900;2024-03-02T11:08:00;6.78;;;2.90;;
39324;SDS011;25037;49.488;9.900;2024-03-02T11:10:45;6.45;;;3.22;;
39324;SDS011;25037;49.488;9.900;2024-03-02T11:13:22;6.10;;;3.30;;
39324;SDS011;25037;49.488;9.900;2024-03-02T11:15:54;7.40;;;3.65;;
39324;SDS011;25037;49.488;9.900;2024-03-02T11:18:23;6.57;;;3.67;;
39324;SDS011;25037;49.488;9.900;2024-03-02T11:20:52;8.95;;;3.20;;
39324;SDS011;25037;49.488;9.900;2024-03-02T11:23:20;5.32;;;2.85;;
39324;SDS011;25037;49.488;9.900;2024-03-02T11:26:20;7.05;;;3.35;;
39324;SDS011;25037;49.488;9.900;2024-03-02T11:28:48;5.68;;;2.67;;
39324;SDS011;25037;49.488;9.900;2024-03-02T11:33:42;5.55;;;2.80;;
39324;SDS011;25037;49.488;9.900;2024-03-02T11:36:09;5.85;;;2.55;;
39324;SDS011;25037;49.488;9.900;2024-03-02T11:38:38;4.82;;;2.65;;
39324;SDS011;25037;49.488;9.900;2024-03-02T11:41:05;4.75;;;1.98;;
39324;SDS011;25037;49.488;9.900;2024-03-02T11:43:38;4.70;;;1.95;;
39324;SDS011;25037;49.488;9.900;2024-03-02T11:46:06;4.30;;;1.83;;
39324;SDS011;25037;49.488;9.900;2024-03-02T11:48:36;3.55;;;1.80;;
39324;SDS011;25037;49.488;9.900;2024-03-02T11:51:04;4.53;;;2.00;;
39324;SDS011;25037;49.488;9.900;2024-03-02T11:56:01;3.83;;;1.95;;
39324;SDS011;25037;49.488;9.900;2024-03-02T11:58:28;4.55;;;1.60;;
39324;SDS011;25037;49.488;9.900;2024-03-02T12:00:56;3.38;;;1.20;;
39324;SDS011;25037;49.488;9.900;2024-03-02T12:03:23;3.25;;;1.10;;
39324;SDS011;25037;49.488;9.900;2024-03-02T12:05:54;3.63;;;1.40;;
39324;SDS011;25037;49.488;9.900;2024-03-02T12:08:22;2.92;;;1.25;;
39324;SDS011;25037;49.488;9.900;2024-03-02T12:10:56;3.92;;;1.92;;
39324;SDS011;25037;49.488;9.900;2024-03-02T12:13:28;3.70;;;1.50;;
39324;SDS011;25037;49.488;9.900;2024-03-02T12:15:56;4.10;;;1.70;;
39324;SDS011;25037;49.488;9.900;2024-03-02T12:18:22;3.85;;;1.92;;
39324;SDS011;25037;49.488;9.900;2024-03-02T12:20:50;3.47;;;1.23;;
39324;SDS011;25037;49.488;9.900;2024-03-02T12:23:19;3.50;;;1.20;;
39324;SDS011;25037;49.488;9.900;2024-03-02T12:25:46;3.17;;;1.50;;
39324;SDS011;25037;49.488;9.900;2024-03-02T12:28:12;4.78;;;2.30;;
39324;SDS011;25037;49.488;9.900;2024-03-02T12:30:39;4.43;;;1.50;;
39324;SDS011;25037;49.488;9.900;2024-03-02T12:33:06;2.65;;;1.20;;
39324;SDS011;25037;49.488;9.900;2024-03-02T12:35:33;3.60;;;1.40;;
39324;SDS011;25037;49.488;9.900;2024-03-02T12:38:01;3.60;;;1.20;;
39324;SDS011;25037;49.488;9.900;2024-03-02T12:42:56;2.80;;;1.10;;
39324;SDS011;25037;49.488;9.900;2024-03-02T12:45:23;2.75;;;1.10;;
39324;SDS011;25037;49.488;9.900;2024-03-02T12:47:51;2.90;;;1.10;;
39324;SDS011;25037;49.488;9.900;2024-03-02T12:50:18;3.47;;;1.50;;
39324;SDS011;25037;49.488;9.900;2024-03-02T12:52:52;3.63;;;2.00;;
39324;SDS011;25037;49.488;9.900;2024-03-02T12:55:20;3.17;;;1.48;;
39324;SDS011;25037;49.488;9.900;2024-03-02T12:57:51;3.35;;;1.50;;
39324;SDS011;25037;49.488;9.900;2024-03-02T13:00:20;3.90;;;1.52;;
39324;SDS011;25037;49.488;9.900;2024-03-02T13:02:48;2.40;;;1.13;;
39324;SDS011;25037;49.488;9.900;2024-03-02T13:05:16;3.03;;;1.48;;
39324;SDS011;25037;49.488;9.900;2024-03-02T13:07:43;3.33;;;1.45;;
39324;SDS011;25037;49.488;9.900;2024-03-02T13:10:12;4.20;;;1.90;;
39324;SDS011;25037;49.488;9.900;2024-03-02T13:12:39;3.28;;;1.80;;
39324;SDS011;25037;49.488;9.900;2024-03-02T13:15:05;4.95;;;1.80;;
39324;SDS011;25037;49.488;9.900;2024-03-02T13:17:35;4.40;;;1.70;;
39324;SDS011;25037;49.488;9.900;2024-03-02T13:20:04;3.88;;;1.95;;
39324;SDS011;25037;49.488;9.900;2024-03-02T13:22:37;5.68;;;2.08;;
39324;SDS011;25037;49.488;9.900;2024-03-02T13:25:04;3.33;;;1.85;;
39324;SDS011;25037;49.488;9.900;2024-03-02T13:27:31;4.03;;;1.83;;
39324;SDS011;25037;49.488;9.900;2024-03-02T13:29:59;4.70;;;2.33;;
39324;SDS011;25037;49.488;9.900;2024-03-02T13:32:26;5.25;;;2.10;;
39324;SDS011;25037;49.488;9.900;2024-03-02T13:34:53;4.30;;;2.13;;
39324;SDS011;25037;49.488;9.900;2024-03-02T13:37:22;4.88;;;2.40;;
39324;SDS011;25037;49.488;9.900;2024-03-02T13:39:49;3.53;;;1.73;;
39324;SDS011;25037;49.488;9.900;2024-03-02T13:42:16;5.45;;;2.30;;
39324;SDS011;25037;49.488;9.900;2024-03-02T13:44:43;4.43;;;2.08;;
39324;SDS011;25037;49.488;9.900;2024-03-02T13:47:13;4.75;;;1.95;;
39324;SDS011;25037;49.488;9.900;2024-03-02T13:49:40;3.45;;;1.70;;
39324;SDS011;25037;49.488;9.900;2024-03-02T13:52:09;3.63;;;2.00;;
39324;SDS011;25037;49.488;9.900;2024-03-02T13:54:37;3.53;;;1.55;;
39324;SDS011;25037;49.488;9.900;2024-03-02T13:57:06;4.40;;;1.70;;
39324;SDS011;25037;49.488;9.900;2024-03-02T13:59:33;5.97;;;1.50;;
39324;SDS011;25037;49.488;9.900;2024-03-02T14:02:01;2.88;;;1.30;;
39324;SDS011;25037;49.488;9.900;2024-03-02T14:04:30;3.67;;;1.42;;
39324;SDS011;25037;49.488;9.900;2024-03-02T14:06:59;2.53;;;1.27;;
39324;SDS011;25037;49.488;9.900;2024-03-02T14:09:26;2.67;;;1.25;;
39324;SDS011;25037;49.488;9.900;2024-03-02T14:11:54;3.38;;;1.30;;
39324;SDS011;25037;49.488;9.900;2024-03-02T14:14:21;4.57;;;1.20;;
39324;SDS011;25037;49.488;9.900;2024-03-02T14:16:48;3.90;;;1.60;;
39324;SDS011;25037;49.488;9.900;2024-03-02T14:19:15;3.97;;;1.52;;
39324;SDS011;25037;49.488;9.900;2024-03-02T14:21:42;3.70;;;1.60;;
39324;SDS011;25037;49.488;9.900;2024-03-02T14:24:09;4.18;;;1.80;;
39324;SDS011;25037;49.488;9.900;2024-03-02T14:29:03;5.85;;;2.40;;
39324;SDS011;25037;49.488;9.900;2024-03-02T14:31:30;5.72;;;2.50;;
39324;SDS011;25037;49.488;9.900;2024-03-02T14:33:57;4.22;;;2.08;;
39324;SDS011;25037;49.488;9.900;2024-03-02T14:36:25;3.58;;;1.60;;
39324;SDS011;25037;49.488;9.900;2024-03-02T14:38:54;3.53;;;1.50;;
39324;SDS011;25037;49.488;9.900;2024-03-02T14:41:21;3.00;;;1.25;;
39324;SDS011;25037;49.488;9.900;2024-03-02T14:43:50;3.58;;;1.90;;
39324;SDS011;25037;49.488;9.900;2024-03-02T14:46:17;3.55;;;1.85;;
39324;SDS011;25037;49.488;9.900;2024-03-02T14:48:45;3.85;;;1.40;;
39324;SDS011;25037;49.488;9.900;2024-03-02T14:51:12;5.10;;;1.63;;
39324;SDS011;25037;49.488;9.900;2024-03-02T14:53:40;5.70;;;1.45;;
39324;SDS011;25037;49.488;9.900;2024-03-02T14:56:07;3.28;;;1.52;;
39324;SDS011;25037;49.488;9.900;2024-03-02T14:58:33;3.78;;;1.80;;
39324;SDS011;25037;49.488;9.900;2024-03-02T15:01:02;5.22;;;1.83;;
39324;SDS011;25037;49.488;9.900;2024-03-02T15:03:29;3.83;;;2.05;;
39324;SDS011;25037;49.488;9.900;2024-03-02T15:05:56;3.45;;;1.80;;
39324;SDS011;25037;49.488;9.900;2024-03-02T15:08:23;3.25;;;1.60;;
39324;SDS011;25037;49.488;9.900;2024-03-02T15:10:50;7.13;;;2.17;;
39324;SDS011;25037;49.488;9.900;2024-03-02T15:13:17;10.15;;;3.20;;
39324;SDS011;25037;49.488;9.900;2024-03-02T15:18:10;6.30;;;2.25;;
39324;SDS011;25037;49.488;9.900;2024-03-02T15:20:37;5.50;;;2.40;;
39324;SDS011;25037;49.488;9.900;2024-03-02T15:25:31;4.47;;;2.00;;
39324;SDS011;25037;49.488;9.900;2024-03-02T15:30:24;5.40;;;2.70;;
39324;SDS011;25037;49.488;9.900;2024-03-02T15:32:51;6.22;;;2.10;;
39324;SDS011;25037;49.488;9.900;2024-03-02T15:35:17;5.53;;;2.17;;